Shin Puropan Maru — JG5508 — position and weather

sailwx.info

Track history (hours):
 
Tides and Currents Weather Stations Pressure Air Temp Water Temp Dewpoint Dewpoint Depression Visibility Wind Speed Wind Dir Waves Ship Positions

Shin Puropan Maru

Last reported at 2015-May-04 06:16 UTC. Time now 2015-May-06 07:25 UTC.
Position N 34°12' E 134°59'.

Length 66 m; draft 4.5 m.

Type: Ship (hazmat cat A). MMSI: 431100348.

Date/timePositionNaut miles runAvg speedWind from/ knotsBaromVisibWave heightAir tempDewpointWater temp
2015-May-04 06:16N 34°12' E 134°59'1212.2
2015-May-04 05:15N 34°24' E 135°04'912.8
2015-May-04 04:34N 34°28' E 135°13'1211.6
2015-May-04 03:33N 34°33' E 135°26'0 0.1
2015-May-03 23:33N 34°33' E 135°26'5 4.7
2015-May-03 22:32N 34°32' E 135°20'0 0.0
2015-May-03 21:32N 34°32' E 135°20'0 0.0
2015-May-03 20:20N 34°32' E 135°20'0 0.0
2015-May-03 19:26N 34°32' E 135°20'0 0.0
2015-May-03 18:32N 34°32' E 135°20'0 0.0
2015-May-03 17:26N 34°32' E 135°20'0 0.0
2015-May-03 16:32N 34°32' E 135°20'0 0.0
2015-May-03 15:26N 34°32' E 135°20'0 0.0
2015-May-03 14:32N 34°32' E 135°20'0 0.0
2015-May-03 13:32N 34°32' E 135°20'0 0.0
2015-May-03 12:32N 34°32' E 135°20'0 0.0
2015-May-03 11:32N 34°32' E 135°20'0 0.0
2015-May-03 10:14N 34°32' E 135°20'0 0.0
2015-May-03 09:32N 34°32' E 135°20'0 0.0
2015-May-03 08:32N 34°32' E 135°20'5 5.5
2015-May-03 07:33N 34°36' E 135°24'3 0.7
2015-May-03 04:07N 34°34' E 135°26'0 0.6
2015-May-03 03:33N 34°35' E 135°25'3 2.4
2015-May-03 02:28N 34°36' E 135°23'0 0.0
2015-May-03 01:16N 34°36' E 135°23'1 2.0
2015-May-03 00:32N 34°35' E 135°21'1212.3
2015-May-02 23:33N 34°27' E 135°11'1612.1
2015-May-02 22:16N 34°15' E 134°59'212 6.4
2015-May-01 13:05N 34°53' E 139°12'1912.1
2015-May-01 11:31N 35°03' E 139°32'1212.2
2015-May-01 10:33N 35°09' E 139°44'1211.5
2015-May-01 09:33N 35°21' E 139°42'1211.8
2015-May-01 08:33N 35°30' E 139°52'1111.2
2015-May-01 07:33N 35°33' E 140°05'0 0.1
2015-May-01 06:33N 35°33' E 140°05'0 0.0
2015-May-01 05:21N 35°33' E 140°05'0 0.0
2015-May-01 04:18N 35°33' E 140°05'0 0.3
2015-May-01 03:33N 35°33' E 140°05'1010.3
2015-May-01 02:33N 35°29' E 139°53'1211.7
2015-May-01 01:33N 35°20' E 139°44'1110.8
2015-May-01 00:33N 35°09' E 139°46'1611.7
2015-Apr-30 23:11N 34°59' E 139°31'230 6.6
2015-Apr-29 12:33N 34°03' E 135°01'1412.3
2015-Apr-29 11:25N 34°17' E 134°59'1011.5
2015-Apr-29 10:31N 34°26' E 135°06'1212.1
2015-Apr-29 09:33N 34°33' E 135°17'7 1.4
2015-Apr-29 04:33N 34°34' E 135°26'1 1.2
2015-Apr-29 03:34N 34°33' E 135°26'1 0.3
2015-Apr-28 23:32N 34°33' E 135°25'2 1.7
2015-Apr-28 22:29N 34°34' E 135°23'0 0.0
2015-Apr-28 21:23N 34°34' E 135°23'0 0.0
2015-Apr-28 20:11N 34°34' E 135°23'0 0.0
2015-Apr-28 19:23N 34°34' E 135°23'0 0.0
2015-Apr-28 18:29N 34°34' E 135°23'0 0.0
2015-Apr-28 17:29N 34°34' E 135°23'0 0.0
2015-Apr-28 16:17N 34°34' E 135°23'0 0.0
2015-Apr-28 15:11N 34°34' E 135°23'0 0.0
2015-Apr-28 14:05N 34°34' E 135°23'0 0.0
2015-Apr-28 12:23N 34°34' E 135°23'0 0.0
2015-Apr-28 11:29N 34°34' E 135°23'0 0.0
2015-Apr-28 10:17N 34°34' E 135°23'1 1.5
2015-Apr-28 09:33N 34°34' E 135°22'1312.4
2015-Apr-28 08:33N 34°35' E 135°07'2 0.0
2015-Apr-26 05:33N 34°36' E 135°04'1212.2
2015-Apr-26 04:34N 34°36' E 135°19'6 4.4
2015-Apr-26 03:15N 34°34' E 135°26'0 0.0
2015-Apr-26 02:09N 34°34' E 135°26'0 0.0
2015-Apr-26 01:33N 34°34' E 135°26'0 0.2
2015-Apr-26 00:33N 34°34' E 135°26'2 2.1
2015-Apr-25 23:28N 34°36' E 135°23'0 0.0
2015-Apr-25 22:20N 34°36' E 135°23'810.5
2015-Apr-25 21:33N 34°31' E 135°15'1211.8
2015-Apr-25 20:33N 34°22' E 135°05'1110.7
2015-Apr-25 19:29N 34°12' E 134°60'  
Track history (hours):
 
Tides and Currents Weather Stations Pressure Air Temp Water Temp Dewpoint Dewpoint Depression Visibility Wind Speed Wind Dir Waves Ship Positions

Shin Puropan Maru

Last reported at 2015-May-04 06:16 UTC. Time now 2015-May-06 07:25 UTC.
Position N 34°12' E 134°59'.

Length 66 m; draft 4.5 m.

Type: Ship (hazmat cat A). MMSI: 431100348.

Date/timePositionNaut miles runAvg speedWind from/ knotsBaromVisibWave heightAir tempDewpointWater temp
2015-May-04 06:16N 34°12' E 134°59'1212.2
2015-May-04 05:15N 34°24' E 135°04'912.8
2015-May-04 04:34N 34°28' E 135°13'1211.6
2015-May-04 03:33N 34°33' E 135°26'0 0.1
2015-May-03 23:33N 34°33' E 135°26'5 4.7
2015-May-03 22:32N 34°32' E 135°20'0 0.0
2015-May-03 21:32N 34°32' E 135°20'0 0.0
2015-May-03 20:20N 34°32' E 135°20'0 0.0
2015-May-03 19:26N 34°32' E 135°20'0 0.0
2015-May-03 18:32N 34°32' E 135°20'0 0.0
2015-May-03 17:26N 34°32' E 135°20'0 0.0
2015-May-03 16:32N 34°32' E 135°20'0 0.0
2015-May-03 15:26N 34°32' E 135°20'0 0.0
2015-May-03 14:32N 34°32' E 135°20'0 0.0
2015-May-03 13:32N 34°32' E 135°20'0 0.0
2015-May-03 12:32N 34°32' E 135°20'0 0.0
2015-May-03 11:32N 34°32' E 135°20'0 0.0
2015-May-03 10:14N 34°32' E 135°20'0 0.0
2015-May-03 09:32N 34°32' E 135°20'0 0.0
2015-May-03 08:32N 34°32' E 135°20'5 5.5
2015-May-03 07:33N 34°36' E 135°24'3 0.7
2015-May-03 04:07N 34°34' E 135°26'0 0.6
2015-May-03 03:33N 34°35' E 135°25'3 2.4
2015-May-03 02:28N 34°36' E 135°23'0 0.0
2015-May-03 01:16N 34°36' E 135°23'1 2.0
2015-May-03 00:32N 34°35' E 135°21'1212.3
2015-May-02 23:33N 34°27' E 135°11'1612.1
2015-May-02 22:16N 34°15' E 134°59'212 6.4
2015-May-01 13:05N 34°53' E 139°12'1912.1
2015-May-01 11:31N 35°03' E 139°32'1212.2
2015-May-01 10:33N 35°09' E 139°44'1211.5
2015-May-01 09:33N 35°21' E 139°42'1211.8
2015-May-01 08:33N 35°30' E 139°52'1111.2
2015-May-01 07:33N 35°33' E 140°05'0 0.1
2015-May-01 06:33N 35°33' E 140°05'0 0.0
2015-May-01 05:21N 35°33' E 140°05'0 0.0
2015-May-01 04:18N 35°33' E 140°05'0 0.3
2015-May-01 03:33N 35°33' E 140°05'1010.3
2015-May-01 02:33N 35°29' E 139°53'1211.7
2015-May-01 01:33N 35°20' E 139°44'1110.8
2015-May-01 00:33N 35°09' E 139°46'1611.7
2015-Apr-30 23:11N 34°59' E 139°31'230 6.6
2015-Apr-29 12:33N 34°03' E 135°01'1412.3
2015-Apr-29 11:25N 34°17' E 134°59'1011.5
2015-Apr-29 10:31N 34°26' E 135°06'1212.1
2015-Apr-29 09:33N 34°33' E 135°17'7 1.4
2015-Apr-29 04:33N 34°34' E 135°26'1 1.2
2015-Apr-29 03:34N 34°33' E 135°26'1 0.3
2015-Apr-28 23:32N 34°33' E 135°25'2 1.7
2015-Apr-28 22:29N 34°34' E 135°23'0 0.0
2015-Apr-28 21:23N 34°34' E 135°23'0 0.0
2015-Apr-28 20:11N 34°34' E 135°23'0 0.0
2015-Apr-28 19:23N 34°34' E 135°23'0 0.0
2015-Apr-28 18:29N 34°34' E 135°23'0 0.0
2015-Apr-28 17:29N 34°34' E 135°23'0 0.0
2015-Apr-28 16:17N 34°34' E 135°23'0 0.0
2015-Apr-28 15:11N 34°34' E 135°23'0 0.0
2015-Apr-28 14:05N 34°34' E 135°23'0 0.0
2015-Apr-28 12:23N 34°34' E 135°23'0 0.0
2015-Apr-28 11:29N 34°34' E 135°23'0 0.0
2015-Apr-28 10:17N 34°34' E 135°23'1 1.5
2015-Apr-28 09:33N 34°34' E 135°22'1312.4
2015-Apr-28 08:33N 34°35' E 135°07'2 0.0
2015-Apr-26 05:33N 34°36' E 135°04'1212.2
2015-Apr-26 04:34N 34°36' E 135°19'6 4.4
2015-Apr-26 03:15N 34°34' E 135°26'0 0.0
2015-Apr-26 02:09N 34°34' E 135°26'0 0.0
2015-Apr-26 01:33N 34°34' E 135°26'0 0.2
2015-Apr-26 00:33N 34°34' E 135°26'2 2.1
2015-Apr-25 23:28N 34°36' E 135°23'0 0.0
2015-Apr-25 22:20N 34°36' E 135°23'810.5
2015-Apr-25 21:33N 34°31' E 135°15'1211.8
2015-Apr-25 20:33N 34°22' E 135°05'1110.7
2015-Apr-25 19:29N 34°12' E 134°60'  

Dump ship's entire track history